METAR AND TAF INFORMATION
METAR FOR EDDV
ADDS - METARS form results

(0717 UTC 22 January 2019)
Data provider http://aviationweather.gov/metar/data/
 
METAR text: EDDV 220650Z 16003KT 100V190 CAVOK M04/M08 Q1012 NOSIG
Conditions at: EDDV (HANNOVER , DE) observed 0650 UTC 22 January 2019
Temperature: -4.0°C (25°F)
Dewpoint: -8.0°C (18°F) [RH = 74%]
Pressure (altimeter): 29.88 inches Hg (1012.0 mb)
Winds: from the SSE (160 degrees) at 3 MPH (3 knots; 1.5 m/s)
Visibility: 6 or more miles (10+ km)
Ceiling: ceiling and visibility are OK
Clouds: unknown
Weather: no significant weather observed at this time

METAR text: EDDV 220620Z 16004KT 130V190 CAVOK M04/M08 Q1012 NOSIG
Conditions at: EDDV (HANNOVER , DE) observed 0620 UTC 22 January 2019
Temperature: -4.0°C (25°F)
Dewpoint: -8.0°C (18°F) [RH = 74%]
Pressure (altimeter): 29.88 inches Hg (1012.0 mb)
Winds: from the SSE (160 degrees) at 5 MPH (4 knots; 2.1 m/s)
Visibility: 6 or more miles (10+ km)
Ceiling: ceiling and visibility are OK
Clouds: unknown
Weather: no significant weather observed at this time

Forecast for: EDDV (HANNOVER , DE)
Text: TAF EDDV 220500Z 2206/2306 16007KT 9999 BKN040
Forecast period: 0600 to 0800 UTC 22 January 2019
Forecast type: FROM: standard forecast or significant change
Winds: from the SSE (160 degrees) at 8 MPH (7 knots; 3.6 m/s)
Visibility: 6 or more miles 10+ km)
Ceiling: 4000 feet AGL
Clouds: broken clouds at 4000 feet AGL
Weather: no significant weather forecast for this period
Text: BECMG 2208/2211 14012KT
Forecast period: 0800 to 1800 UTC 22 January 2019
Forecast type: BECOMING: Conditions expected to become as follows by 1100 UTC 22 January 2019
Winds: from the SE (140 degrees) at 14 MPH (12 knots; 6.2 m/s)
Visibility: 6 or more miles 10+ km)
Ceiling: 4000 feet AGL
Clouds: broken clouds at 4000 feet AGL
Weather: no significant weather forecast for this period
Text: BECMG 2218/2221 12005KT
Forecast period: 1800 UTC 22 January 2019 to 0600 UTC 23 January 2019
Forecast type: BECOMING: Conditions expected to become as follows by 2100 UTC 22 January 2019
Winds: from the ESE (120 degrees) at 6 MPH (5 knots; 2.6 m/s)
Visibility: 6 or more miles 10+ km)
Ceiling: 4000 feet AGL
Clouds: broken clouds at 4000 feet AGL
Weather: no significant weather forecast for this period

 AIRPORT MAP

 RUNWAY INFORMATION

 AIRPORT FREQUENCIES
Type APP Name DIRECTOR Frequency 119.6 MHZ
Type ATIS Name ATIS Frequency 132.125 MHZ
Type GND Name GND Frequency 121.95 MHZ
Type INFO Name BREMEN INF Frequency 119.825 MHZ
Type RDR Name BREMEN RAD Frequency 131.325 MHZ
Type TWR Name TWR Frequency 120.175 MHZ

 AIRPORT NEAR NAVIGATION AIDS
Type NDB Name Hannover Frequency 320 KHZ
Type DME Name Hannover Frequency 113950 KHZ
Type NDB Name Hannover Frequency 332 KHZ
Type DME Name Hannover Frequency 116900 KHZ
Type NDB Name Hannover Frequency 358 KHZ



2018 Air Astana Virtual Airline